Terminal Aerodrome Forecast
Issued by NWS

Home | Current Version | Previous Version | Text Only | Print | Product List | Glossary On
Versions: 1 2 3 4 5 6 7 8 9 10 11 12 13 14
880
FTUS43 KJKL 222334
TAFSME
TAF
KSME 222334Z 2300/2324 VRB03KT P6SM SCT250
      TEMPO 2309/2313 3SM BR=

USA.gov is the U.S. government's official web portal to all federal, state and local government web resources and services.